Logo Brunsvigian Airlines

Die löwenstarke Airline aus Braunschweig

Charts auf der Seite von VATEUD

LOWI 042320Z 29003KT 250V360 8000 RA FEW008 SCT035 BKN060 15/14 Q1020 NOSIG

flugnummerleerzeichenankunftleerzeichenplanmaessig
ABS607__BRAUNSCHWEIG_____19doppelpunkt00

flugnummerleerzeichenankunftleerzeichenplanmaessig
ABS606__BRAUNSCHWEIG_____18doppelpunkt30

Kontakt   Impressum

Valid HTML 4.01 Transitional CSS ist valide!